sensor_id;sensor_type;location;lat;lon;timestamp;temperature;humidity
23691;DHT22;43867;50.836;4.364;2022-09-13T00:01:42;20.80;99.90
23691;DHT22;43867;50.836;4.364;2022-09-13T00:04:08;20.80;99.90
23691;DHT22;43867;50.836;4.364;2022-09-13T00:06:34;20.70;99.90
23691;DHT22;43867;50.836;4.364;2022-09-13T00:08:59;20.70;99.90
23691;DHT22;43867;50.836;4.364;2022-09-13T00:11:28;20.60;99.90
23691;DHT22;43867;50.836;4.364;2022-09-13T00:13:54;20.60;99.90
23691;DHT22;43867;50.836;4.364;2022-09-13T00:16:22;20.60;99.90
23691;DHT22;43867;50.836;4.364;2022-09-13T00:18:49;20.60;99.90
23691;DHT22;43867;50.836;4.364;2022-09-13T00:21:17;20.80;99.90
23691;DHT22;43867;50.836;4.364;2022-09-13T00:23:45;20.70;99.90
23691;DHT22;43867;50.836;4.364;2022-09-13T00:26:13;20.60;99.90
23691;DHT22;43867;50.836;4.364;2022-09-13T00:28:39;20.60;99.90
23691;DHT22;43867;50.836;4.364;2022-09-13T00:31:07;20.60;99.90
23691;DHT22;43867;50.836;4.364;2022-09-13T00:33:33;20.70;99.90
23691;DHT22;43867;50.836;4.364;2022-09-13T00:36:05;20.60;99.90
23691;DHT22;43867;50.836;4.364;2022-09-13T00:38:33;20.60;99.90
23691;DHT22;43867;50.836;4.364;2022-09-13T00:40:59;20.60;99.90
23691;DHT22;43867;50.836;4.364;2022-09-13T00:43:42;20.60;99.90
23691;DHT22;43867;50.836;4.364;2022-09-13T00:46:08;20.60;99.90
23691;DHT22;43867;50.836;4.364;2022-09-13T00:48:35;20.60;99.90
23691;DHT22;43867;50.836;4.364;2022-09-13T00:51:01;20.50;99.90
23691;DHT22;43867;50.836;4.364;2022-09-13T00:53:31;20.60;99.90
23691;DHT22;43867;50.836;4.364;2022-09-13T00:56:06;20.60;99.90
23691;DHT22;43867;50.836;4.364;2022-09-13T00:58:47;20.60;99.90
23691;DHT22;43867;50.836;4.364;2022-09-13T01:01:15;20.60;99.90
23691;DHT22;43867;50.836;4.364;2022-09-13T01:03:45;20.70;99.90
23691;DHT22;43867;50.836;4.364;2022-09-13T01:06:24;20.80;99.90
23691;DHT22;43867;50.836;4.364;2022-09-13T01:08:54;20.70;99.90
23691;DHT22;43867;50.836;4.364;2022-09-13T01:14:09;20.80;99.90
23691;DHT22;43867;50.836;4.364;2022-09-13T01:16:35;20.80;99.90
23691;DHT22;43867;50.836;4.364;2022-09-13T01:19:00;20.90;99.90
23691;DHT22;43867;50.836;4.364;2022-09-13T01:35:32;20.40;99.90
23691;DHT22;43867;50.836;4.364;2022-09-13T01:45:55;20.70;99.90
23691;DHT22;43867;50.836;4.364;2022-09-13T01:48:34;20.70;99.90
23691;DHT22;43867;50.836;4.364;2022-09-13T01:54:11;20.70;99.90
23691;DHT22;43867;50.836;4.364;2022-09-13T01:59:27;20.60;99.90
23691;DHT22;43867;50.836;4.364;2022-09-13T02:02:09;20.50;99.90
23691;DHT22;43867;50.836;4.364;2022-09-13T02:04:42;20.60;99.90
23691;DHT22;43867;50.836;4.364;2022-09-13T02:07:18;20.60;99.90
23691;DHT22;43867;50.836;4.364;2022-09-13T02:09:53;20.60;99.90
23691;DHT22;43867;50.836;4.364;2022-09-13T02:12:24;20.60;99.90
23691;DHT22;43867;50.836;4.364;2022-09-13T02:15:02;20.60;99.90
23691;DHT22;43867;50.836;4.364;2022-09-13T02:17:38;20.60;99.90
23691;DHT22;43867;50.836;4.364;2022-09-13T02:20:11;20.60;99.90
23691;DHT22;43867;50.836;4.364;2022-09-13T02:22:43;20.70;99.90
23691;DHT22;43867;50.836;4.364;2022-09-13T02:25:16;20.80;99.90
23691;DHT22;43867;50.836;4.364;2022-09-13T02:27:46;20.80;99.90
23691;DHT22;43867;50.836;4.364;2022-09-13T02:30:13;20.80;99.90
23691;DHT22;43867;50.836;4.364;2022-09-13T02:32:55;20.80;99.90
23691;DHT22;43867;50.836;4.364;2022-09-13T02:38:14;20.80;99.90
23691;DHT22;43867;50.836;4.364;2022-09-13T02:40:47;20.80;99.90
23691;DHT22;43867;50.836;4.364;2022-09-13T02:43:19;20.80;99.90
23691;DHT22;43867;50.836;4.364;2022-09-13T02:45:57;20.80;99.90
23691;DHT22;43867;50.836;4.364;2022-09-13T02:48:35;20.80;99.90
23691;DHT22;43867;50.836;4.364;2022-09-13T02:51:17;20.70;99.90
23691;DHT22;43867;50.836;4.364;2022-09-13T02:53:58;20.60;99.90
23691;DHT22;43867;50.836;4.364;2022-09-13T02:56:42;20.40;99.90
23691;DHT22;43867;50.836;4.364;2022-09-13T02:59:15;20.50;99.90
23691;DHT22;43867;50.836;4.364;2022-09-13T03:01:45;20.50;99.90
23691;DHT22;43867;50.836;4.364;2022-09-13T03:04:12;20.50;99.90
23691;DHT22;43867;50.836;4.364;2022-09-13T03:06:39;20.40;99.90
23691;DHT22;43867;50.836;4.364;2022-09-13T03:09:06;20.40;99.90
23691;DHT22;43867;50.836;4.364;2022-09-13T03:14:17;20.20;99.90
23691;DHT22;43867;50.836;4.364;2022-09-13T03:16:55;20.00;99.90
23691;DHT22;43867;50.836;4.364;2022-09-13T03:30:34;20.20;99.90
23691;DHT22;43867;50.836;4.364;2022-09-13T03:35:53;20.10;99.90
23691;DHT22;43867;50.836;4.364;2022-09-13T03:38:20;20.10;99.90
23691;DHT22;43867;50.836;4.364;2022-09-13T03:41:04;20.20;99.90
23691;DHT22;43867;50.836;4.364;2022-09-13T03:43:32;20.20;99.90
23691;DHT22;43867;50.836;4.364;2022-09-13T03:46:07;20.20;99.90
23691;DHT22;43867;50.836;4.364;2022-09-13T03:48:36;20.10;99.90
23691;DHT22;43867;50.836;4.364;2022-09-13T03:51:05;20.20;99.90
23691;DHT22;43867;50.836;4.364;2022-09-13T03:53:34;20.10;99.90
23691;DHT22;43867;50.836;4.364;2022-09-13T03:56:00;20.00;99.90
23691;DHT22;43867;50.836;4.364;2022-09-13T03:58:26;20.00;99.90
23691;DHT22;43867;50.836;4.364;2022-09-13T04:00:51;20.00;99.90
23691;DHT22;43867;50.836;4.364;2022-09-13T04:03:19;20.00;99.90
23691;DHT22;43867;50.836;4.364;2022-09-13T04:05:45;20.00;99.90
23691;DHT22;43867;50.836;4.364;2022-09-13T04:08:11;20.00;99.90
23691;DHT22;43867;50.836;4.364;2022-09-13T04:10:37;20.00;99.90
23691;DHT22;43867;50.836;4.364;2022-09-13T04:13:03;20.00;99.90
23691;DHT22;43867;50.836;4.364;2022-09-13T04:15:29;20.00;99.90
23691;DHT22;43867;50.836;4.364;2022-09-13T04:17:58;20.00;99.90
23691;DHT22;43867;50.836;4.364;2022-09-13T04:20:23;20.00;99.90
23691;DHT22;43867;50.836;4.364;2022-09-13T04:22:54;19.90;99.90
23691;DHT22;43867;50.836;4.364;2022-09-13T04:25:21;19.90;99.90
23691;DHT22;43867;50.836;4.364;2022-09-13T04:27:47;19.90;99.90
23691;DHT22;43867;50.836;4.364;2022-09-13T04:30:13;19.90;99.90
23691;DHT22;43867;50.836;4.364;2022-09-13T04:32:41;19.90;99.90
23691;DHT22;43867;50.836;4.364;2022-09-13T04:35:08;20.00;99.90
23691;DHT22;43867;50.836;4.364;2022-09-13T04:37:33;20.00;99.90
23691;DHT22;43867;50.836;4.364;2022-09-13T04:39:59;20.10;99.90
23691;DHT22;43867;50.836;4.364;2022-09-13T04:42:24;20.10;99.90
23691;DHT22;43867;50.836;4.364;2022-09-13T04:44:50;20.10;99.90
23691;DHT22;43867;50.836;4.364;2022-09-13T04:47:15;20.00;99.90
23691;DHT22;43867;50.836;4.364;2022-09-13T04:49:42;20.00;99.90
23691;DHT22;43867;50.836;4.364;2022-09-13T04:52:08;20.00;99.90
23691;DHT22;43867;50.836;4.364;2022-09-13T04:54:33;19.90;99.90
23691;DHT22;43867;50.836;4.364;2022-09-13T04:56:59;19.90;99.90
23691;DHT22;43867;50.836;4.364;2022-09-13T04:59:24;19.90;99.90
23691;DHT22;43867;50.836;4.364;2022-09-13T05:01:50;19.90;99.90
23691;DHT22;43867;50.836;4.364;2022-09-13T05:04:16;19.90;99.90
23691;DHT22;43867;50.836;4.364;2022-09-13T05:06:42;19.90;99.90
23691;DHT22;43867;50.836;4.364;2022-09-13T05:09:12;20.00;99.90
23691;DHT22;43867;50.836;4.364;2022-09-13T05:11:37;20.00;99.90
23691;DHT22;43867;50.836;4.364;2022-09-13T05:14:03;20.10;99.90
23691;DHT22;43867;50.836;4.364;2022-09-13T05:16:31;20.10;99.90
23691;DHT22;43867;50.836;4.364;2022-09-13T05:18:57;20.20;99.90
23691;DHT22;43867;50.836;4.364;2022-09-13T05:21:24;20.20;99.90
23691;DHT22;43867;50.836;4.364;2022-09-13T05:23:51;20.20;99.90
23691;DHT22;43867;50.836;4.364;2022-09-13T05:26:19;20.20;99.90
23691;DHT22;43867;50.836;4.364;2022-09-13T05:28:44;20.20;99.90
23691;DHT22;43867;50.836;4.364;2022-09-13T05:31:25;20.00;99.90
23691;DHT22;43867;50.836;4.364;2022-09-13T05:33:54;19.80;99.90
23691;DHT22;43867;50.836;4.364;2022-09-13T05:36:20;19.80;99.90
23691;DHT22;43867;50.836;4.364;2022-09-13T05:38:46;19.70;99.90
23691;DHT22;43867;50.836;4.364;2022-09-13T05:41:12;19.60;99.90
23691;DHT22;43867;50.836;4.364;2022-09-13T05:43:37;19.60;99.90
23691;DHT22;43867;50.836;4.364;2022-09-13T05:46:10;19.60;99.90
23691;DHT22;43867;50.836;4.364;2022-09-13T05:48:36;19.60;99.90
23691;DHT22;43867;50.836;4.364;2022-09-13T05:51:21;19.70;99.90
23691;DHT22;43867;50.836;4.364;2022-09-13T05:53:52;19.80;99.90
23691;DHT22;43867;50.836;4.364;2022-09-13T05:56:20;19.80;99.90
23691;DHT22;43867;50.836;4.364;2022-09-13T05:58:47;19.80;99.90
23691;DHT22;43867;50.836;4.364;2022-09-13T06:01:16;19.80;99.90
23691;DHT22;43867;50.836;4.364;2022-09-13T06:03:42;19.90;99.90
23691;DHT22;43867;50.836;4.364;2022-09-13T06:06:09;20.00;99.90
23691;DHT22;43867;50.836;4.364;2022-09-13T06:08:35;20.00;99.90
23691;DHT22;43867;50.836;4.364;2022-09-13T06:11:06;20.10;99.90
23691;DHT22;43867;50.836;4.364;2022-09-13T06:13:33;20.20;99.90
23691;DHT22;43867;50.836;4.364;2022-09-13T06:16:00;20.20;99.90
23691;DHT22;43867;50.836;4.364;2022-09-13T06:18:26;20.30;99.90
23691;DHT22;43867;50.836;4.364;2022-09-13T06:21:07;20.40;99.90
23691;DHT22;43867;50.836;4.364;2022-09-13T06:23:33;20.60;99.90
23691;DHT22;43867;50.836;4.364;2022-09-13T06:26:06;20.50;99.90
23691;DHT22;43867;50.836;4.364;2022-09-13T06:28:33;20.30;99.90
23691;DHT22;43867;50.836;4.364;2022-09-13T06:31:04;20.40;99.90
23691;DHT22;43867;50.836;4.364;2022-09-13T06:33:36;20.50;99.90
23691;DHT22;43867;50.836;4.364;2022-09-13T06:36:03;20.70;99.90
23691;DHT22;43867;50.836;4.364;2022-09-13T06:38:29;20.70;99.90
23691;DHT22;43867;50.836;4.364;2022-09-13T06:41:08;20.90;99.90
23691;DHT22;43867;50.836;4.364;2022-09-13T06:43:35;20.80;99.90
23691;DHT22;43867;50.836;4.364;2022-09-13T06:46:04;21.00;99.90
23691;DHT22;43867;50.836;4.364;2022-09-13T06:48:32;21.00;99.90
23691;DHT22;43867;50.836;4.364;2022-09-13T06:50:59;21.10;99.90
23691;DHT22;43867;50.836;4.364;2022-09-13T06:53:25;21.20;99.90
23691;DHT22;43867;50.836;4.364;2022-09-13T06:56:10;21.40;99.90
23691;DHT22;43867;50.836;4.364;2022-09-13T06:58:38;21.60;99.90
23691;DHT22;43867;50.836;4.364;2022-09-13T07:01:21;21.60;99.90
23691;DHT22;43867;50.836;4.364;2022-09-13T07:03:49;21.30;99.90
23691;DHT22;43867;50.836;4.364;2022-09-13T07:06:19;21.40;99.90
23691;DHT22;43867;50.836;4.364;2022-09-13T07:08:46;21.30;99.90
23691;DHT22;43867;50.836;4.364;2022-09-13T07:11:14;21.30;99.90
23691;DHT22;43867;50.836;4.364;2022-09-13T07:13:40;21.50;99.90
23691;DHT22;43867;50.836;4.364;2022-09-13T07:16:08;21.80;99.90
23691;DHT22;43867;50.836;4.364;2022-09-13T07:18:34;22.00;99.90
23691;DHT22;43867;50.836;4.364;2022-09-13T07:21:05;22.30;99.90
23691;DHT22;43867;50.836;4.364;2022-09-13T07:23:32;22.20;99.90
23691;DHT22;43867;50.836;4.364;2022-09-13T07:25:59;22.40;99.90
23691;DHT22;43867;50.836;4.364;2022-09-13T07:28:35;22.50;99.90
23691;DHT22;43867;50.836;4.364;2022-09-13T07:31:13;22.50;99.90
23691;DHT22;43867;50.836;4.364;2022-09-13T07:33:40;22.10;99.90
23691;DHT22;43867;50.836;4.364;2022-09-13T07:36:06;21.90;99.90
23691;DHT22;43867;50.836;4.364;2022-09-13T07:38:36;21.80;99.90
23691;DHT22;43867;50.836;4.364;2022-09-13T07:41:03;21.80;99.90
23691;DHT22;43867;50.836;4.364;2022-09-13T07:43:34;21.80;99.90
23691;DHT22;43867;50.836;4.364;2022-09-13T07:46:12;21.70;99.90
23691;DHT22;43867;50.836;4.364;2022-09-13T07:48:39;21.80;99.90
23691;DHT22;43867;50.836;4.364;2022-09-13T07:51:16;22.00;99.90
23691;DHT22;43867;50.836;4.364;2022-09-13T07:53:43;22.10;99.90
23691;DHT22;43867;50.836;4.364;2022-09-13T07:56:14;22.10;99.90
23691;DHT22;43867;50.836;4.364;2022-09-13T07:58:42;22.10;99.90
23691;DHT22;43867;50.836;4.364;2022-09-13T08:01:24;22.10;99.90
23691;DHT22;43867;50.836;4.364;2022-09-13T08:04:01;22.30;99.90
23691;DHT22;43867;50.836;4.364;2022-09-13T08:06:30;22.50;99.90
23691;DHT22;43867;50.836;4.364;2022-09-13T08:08:56;22.50;99.90
23691;DHT22;43867;50.836;4.364;2022-09-13T08:13:50;22.80;99.90
23691;DHT22;43867;50.836;4.364;2022-09-13T08:16:18;22.90;99.90
23691;DHT22;43867;50.836;4.364;2022-09-13T08:18:49;23.00;99.90
23691;DHT22;43867;50.836;4.364;2022-09-13T08:21:15;23.30;99.90
23691;DHT22;43867;50.836;4.364;2022-09-13T08:23:41;23.20;99.90
23691;DHT22;43867;50.836;4.364;2022-09-13T08:26:07;23.20;99.90
23691;DHT22;43867;50.836;4.364;2022-09-13T08:28:34;22.90;99.90
23691;DHT22;43867;50.836;4.364;2022-09-13T08:33:32;22.50;99.90
23691;DHT22;43867;50.836;4.364;2022-09-13T08:35:59;22.60;99.90
23691;DHT22;43867;50.836;4.364;2022-09-13T08:38:24;22.60;99.90
23691;DHT22;43867;50.836;4.364;2022-09-13T08:41:01;23.00;99.90
23691;DHT22;43867;50.836;4.364;2022-09-13T08:46:40;23.20;99.90
23691;DHT22;43867;50.836;4.364;2022-09-13T08:49:24;23.40;99.90
23691;DHT22;43867;50.836;4.364;2022-09-13T08:51:54;23.40;99.90
23691;DHT22;43867;50.836;4.364;2022-09-13T08:54:20;23.50;99.90
23691;DHT22;43867;50.836;4.364;2022-09-13T09:03:00;23.50;99.90
23691;DHT22;43867;50.836;4.364;2022-09-13T09:05:23;23.80;99.90
23691;DHT22;43867;50.836;4.364;2022-09-13T09:08:05;23.70;99.90
23691;DHT22;43867;50.836;4.364;2022-09-13T09:10:40;24.00;99.90
23691;DHT22;43867;50.836;4.364;2022-09-13T09:13:29;24.40;99.90
23691;DHT22;43867;50.836;4.364;2022-09-13T09:16:13;24.80;99.00
23691;DHT22;43867;50.836;4.364;2022-09-13T09:18:44;24.70;97.10
23691;DHT22;43867;50.836;4.364;2022-09-13T09:21:15;24.70;97.10
23691;DHT22;43867;50.836;4.364;2022-09-13T09:23:49;24.60;97.20
23691;DHT22;43867;50.836;4.364;2022-09-13T09:26:17;24.10;98.70
23691;DHT22;43867;50.836;4.364;2022-09-13T09:29:49;24.30;98.50
23691;DHT22;43867;50.836;4.364;2022-09-13T09:37:18;24.10;99.10
23691;DHT22;43867;50.836;4.364;2022-09-13T09:39:49;24.50;98.70
23691;DHT22;43867;50.836;4.364;2022-09-13T09:42:20;24.80;98.00
23691;DHT22;43867;50.836;4.364;2022-09-13T09:44:55;25.10;97.50
23691;DHT22;43867;50.836;4.364;2022-09-13T09:47:25;25.00;97.20
23691;DHT22;43867;50.836;4.364;2022-09-13T09:50:09;25.10;97.60
23691;DHT22;43867;50.836;4.364;2022-09-13T09:55:31;24.50;99.40
23691;DHT22;43867;50.836;4.364;2022-09-13T09:58:01;24.60;99.30
23691;DHT22;43867;50.836;4.364;2022-09-13T10:00:36;24.80;99.10
23691;DHT22;43867;50.836;4.364;2022-09-13T10:03:17;24.90;99.40
23691;DHT22;43867;50.836;4.364;2022-09-13T10:05:43;25.10;98.10
23691;DHT22;43867;50.836;4.364;2022-09-13T10:08:29;25.00;97.80
23691;DHT22;43867;50.836;4.364;2022-09-13T10:10:58;24.90;97.50
23691;DHT22;43867;50.836;4.364;2022-09-13T10:13:25;24.70;97.90
23691;DHT22;43867;50.836;4.364;2022-09-13T10:15:54;24.50;97.70
23691;DHT22;43867;50.836;4.364;2022-09-13T10:18:21;24.40;97.90
23691;DHT22;43867;50.836;4.364;2022-09-13T10:23:34;24.40;98.30
23691;DHT22;43867;50.836;4.364;2022-09-13T10:26:09;24.60;97.80
23691;DHT22;43867;50.836;4.364;2022-09-13T10:28:52;24.70;98.50
23691;DHT22;43867;50.836;4.364;2022-09-13T10:31:28;25.00;98.50
23691;DHT22;43867;50.836;4.364;2022-09-13T10:34:01;24.90;98.40
23691;DHT22;43867;50.836;4.364;2022-09-13T10:36:36;25.00;98.60
23691;DHT22;43867;50.836;4.364;2022-09-13T10:39:17;25.10;97.70
23691;DHT22;43867;50.836;4.364;2022-09-13T10:41:49;25.30;97.10
23691;DHT22;43867;50.836;4.364;2022-09-13T10:46:51;25.00;97.40
23691;DHT22;43867;50.836;4.364;2022-09-13T10:49:43;25.00;98.00
23691;DHT22;43867;50.836;4.364;2022-09-13T10:57:43;24.90;97.40
23691;DHT22;43867;50.836;4.364;2022-09-13T11:00:13;24.70;98.70
23691;DHT22;43867;50.836;4.364;2022-09-13T11:06:10;24.50;99.80
23691;DHT22;43867;50.836;4.364;2022-09-13T11:25:16;24.90;99.20
23691;DHT22;43867;50.836;4.364;2022-09-13T11:30:22;24.70;99.90
23691;DHT22;43867;50.836;4.364;2022-09-13T11:33:37;24.60;99.90
23691;DHT22;43867;50.836;4.364;2022-09-13T11:47:03;25.20;99.90
23691;DHT22;43867;50.836;4.364;2022-09-13T11:57:36;25.10;99.90
23691;DHT22;43867;50.836;4.364;2022-09-13T12:00:49;25.00;99.90
23691;DHT22;43867;50.836;4.364;2022-09-13T12:05:54;25.50;99.90
23691;DHT22;43867;50.836;4.364;2022-09-13T12:08:30;25.30;99.90
23691;DHT22;43867;50.836;4.364;2022-09-13T12:11:02;25.60;99.50
23691;DHT22;43867;50.836;4.364;2022-09-13T12:13:40;25.30;99.90
23691;DHT22;43867;50.836;4.364;2022-09-13T12:16:13;25.40;99.90
23691;DHT22;43867;50.836;4.364;2022-09-13T12:18:53;25.30;99.90
23691;DHT22;43867;50.836;4.364;2022-09-13T12:21:28;25.00;99.90
23691;DHT22;43867;50.836;4.364;2022-09-13T12:27:21;25.50;99.90
23691;DHT22;43867;50.836;4.364;2022-09-13T12:29:52;25.10;99.90
23691;DHT22;43867;50.836;4.364;2022-09-13T12:32:19;25.20;99.90
23691;DHT22;43867;50.836;4.364;2022-09-13T12:34:58;25.20;99.90
23691;DHT22;43867;50.836;4.364;2022-09-13T12:48:38;24.70;99.90
23691;DHT22;43867;50.836;4.364;2022-09-13T12:54:08;24.60;99.90
23691;DHT22;43867;50.836;4.364;2022-09-13T12:57:00;24.60;99.90
23691;DHT22;43867;50.836;4.364;2022-09-13T13:02:40;24.00;99.90
23691;DHT22;43867;50.836;4.364;2022-09-13T13:05:27;23.90;99.90
23691;DHT22;43867;50.836;4.364;2022-09-13T13:07:59;24.10;99.90
23691;DHT22;43867;50.836;4.364;2022-09-13T13:10:32;24.20;99.90
23691;DHT22;43867;50.836;4.364;2022-09-13T13:18:28;24.40;99.90
23691;DHT22;43867;50.836;4.364;2022-09-13T13:23:36;24.30;99.90
23691;DHT22;43867;50.836;4.364;2022-09-13T13:31:40;24.30;99.90
23691;DHT22;43867;50.836;4.364;2022-09-13T13:57:35;22.90;99.90
23691;DHT22;43867;50.836;4.364;2022-09-13T14:00:21;22.80;99.90
23691;DHT22;43867;50.836;4.364;2022-09-13T14:08:45;23.20;99.90
23691;DHT22;43867;50.836;4.364;2022-09-13T14:19:52;23.50;99.90
23691;DHT22;43867;50.836;4.364;2022-09-13T14:22:24;23.50;99.90
23691;DHT22;43867;50.836;4.364;2022-09-13T14:25:21;23.50;99.90
23691;DHT22;43867;50.836;4.364;2022-09-13T14:27:48;23.50;99.90
23691;DHT22;43867;50.836;4.364;2022-09-13T14:32:47;23.40;99.90
23691;DHT22;43867;50.836;4.364;2022-09-13T14:35:32;23.30;99.90
23691;DHT22;43867;50.836;4.364;2022-09-13T14:38:11;23.40;99.90
23691;DHT22;43867;50.836;4.364;2022-09-13T14:40:37;23.10;99.90
23691;DHT22;43867;50.836;4.364;2022-09-13T14:43:23;23.20;99.90
23691;DHT22;43867;50.836;4.364;2022-09-13T14:45:58;23.30;99.90
23691;DHT22;43867;50.836;4.364;2022-09-13T14:48:28;23.50;99.90
23691;DHT22;43867;50.836;4.364;2022-09-13T14:51:07;23.60;99.90
23691;DHT22;43867;50.836;4.364;2022-09-13T14:53:39;23.60;99.90
23691;DHT22;43867;50.836;4.364;2022-09-13T14:56:22;23.40;99.90
23691;DHT22;43867;50.836;4.364;2022-09-13T14:58:59;23.40;99.90
23691;DHT22;43867;50.836;4.364;2022-09-13T15:01:33;23.50;99.90
23691;DHT22;43867;50.836;4.364;2022-09-13T15:04:01;23.40;99.90
23691;DHT22;43867;50.836;4.364;2022-09-13T15:06:33;23.50;99.90
23691;DHT22;43867;50.836;4.364;2022-09-13T15:09:14;23.50;99.90
23691;DHT22;43867;50.836;4.364;2022-09-13T15:16:57;23.50;99.90
23691;DHT22;43867;50.836;4.364;2022-09-13T15:19:37;23.50;99.90
23691;DHT22;43867;50.836;4.364;2022-09-13T15:24:51;23.20;99.90
23691;DHT22;43867;50.836;4.364;2022-09-13T15:27:27;23.10;99.90
23691;DHT22;43867;50.836;4.364;2022-09-13T15:29:55;23.10;99.90
23691;DHT22;43867;50.836;4.364;2022-09-13T15:34:58;23.10;99.90
23691;DHT22;43867;50.836;4.364;2022-09-13T15:37:33;23.40;99.90
23691;DHT22;43867;50.836;4.364;2022-09-13T15:40:20;23.50;99.90
23691;DHT22;43867;50.836;4.364;2022-09-13T15:42:50;23.70;99.90
23691;DHT22;43867;50.836;4.364;2022-09-13T15:45:18;23.80;99.90
23691;DHT22;43867;50.836;4.364;2022-09-13T15:47:49;23.50;99.90
23691;DHT22;43867;50.836;4.364;2022-09-13T15:50:23;23.40;99.90
23691;DHT22;43867;50.836;4.364;2022-09-13T15:52:52;23.10;99.90
23691;DHT22;43867;50.836;4.364;2022-09-13T15:55:17;23.20;99.90
23691;DHT22;43867;50.836;4.364;2022-09-13T15:57:44;23.30;99.90
23691;DHT22;43867;50.836;4.364;2022-09-13T16:00:21;23.50;99.90
23691;DHT22;43867;50.836;4.364;2022-09-13T16:02:48;23.50;99.90
23691;DHT22;43867;50.836;4.364;2022-09-13T16:05:14;23.30;99.90
23691;DHT22;43867;50.836;4.364;2022-09-13T16:07:40;23.40;99.90
23691;DHT22;43867;50.836;4.364;2022-09-13T16:10:15;23.50;99.90
23691;DHT22;43867;50.836;4.364;2022-09-13T16:12:41;23.20;99.90
23691;DHT22;43867;50.836;4.364;2022-09-13T16:15:07;23.10;99.90
23691;DHT22;43867;50.836;4.364;2022-09-13T16:17:33;23.00;99.90
23691;DHT22;43867;50.836;4.364;2022-09-13T16:19:59;22.70;99.90
23691;DHT22;43867;50.836;4.364;2022-09-13T16:22:25;22.70;99.90
23691;DHT22;43867;50.836;4.364;2022-09-13T16:24:51;22.70;99.90
23691;DHT22;43867;50.836;4.364;2022-09-13T16:27:18;22.80;99.90
23691;DHT22;43867;50.836;4.364;2022-09-13T16:29:44;22.70;99.90
23691;DHT22;43867;50.836;4.364;2022-09-13T16:32:10;22.60;99.90
23691;DHT22;43867;50.836;4.364;2022-09-13T16:34:36;22.40;99.90
23691;DHT22;43867;50.836;4.364;2022-09-13T16:37:03;22.40;99.90
23691;DHT22;43867;50.836;4.364;2022-09-13T16:39:28;22.40;99.90
23691;DHT22;43867;50.836;4.364;2022-09-13T16:41:54;22.50;99.90
23691;DHT22;43867;50.836;4.364;2022-09-13T16:44:20;22.10;99.90
23691;DHT22;43867;50.836;4.364;2022-09-13T16:46:45;21.70;99.90
23691;DHT22;43867;50.836;4.364;2022-09-13T16:49:11;21.40;99.90
23691;DHT22;43867;50.836;4.364;2022-09-13T16:51:37;21.10;99.90
23691;DHT22;43867;50.836;4.364;2022-09-13T16:54:04;20.90;99.90
23691;DHT22;43867;50.836;4.364;2022-09-13T16:56:30;20.80;99.90
23691;DHT22;43867;50.836;4.364;2022-09-13T16:58:56;20.70;99.90
23691;DHT22;43867;50.836;4.364;2022-09-13T17:01:25;20.60;99.90
23691;DHT22;43867;50.836;4.364;2022-09-13T17:03:51;20.50;99.90
23691;DHT22;43867;50.836;4.364;2022-09-13T17:06:20;20.50;99.90
23691;DHT22;43867;50.836;4.364;2022-09-13T17:08:58;20.50;99.90
23691;DHT22;43867;50.836;4.364;2022-09-13T17:11:28;20.50;99.90
23691;DHT22;43867;50.836;4.364;2022-09-13T17:13:54;20.40;99.90
23691;DHT22;43867;50.836;4.364;2022-09-13T17:18:52;20.40;99.90
23691;DHT22;43867;50.836;4.364;2022-09-13T17:21:18;20.10;99.90
23691;DHT22;43867;50.836;4.364;2022-09-13T17:23:44;19.90;99.90
23691;DHT22;43867;50.836;4.364;2022-09-13T17:26:10;19.90;99.90
23691;DHT22;43867;50.836;4.364;2022-09-13T17:28:36;19.70;99.90
23691;DHT22;43867;50.836;4.364;2022-09-13T17:31:01;19.80;99.90
23691;DHT22;43867;50.836;4.364;2022-09-13T17:33:27;19.70;99.90
23691;DHT22;43867;50.836;4.364;2022-09-13T17:36:02;19.70;99.90
23691;DHT22;43867;50.836;4.364;2022-09-13T17:38:28;19.60;99.90
23691;DHT22;43867;50.836;4.364;2022-09-13T17:41:07;19.50;99.90
23691;DHT22;43867;50.836;4.364;2022-09-13T17:43:34;19.40;99.90
23691;DHT22;43867;50.836;4.364;2022-09-13T17:46:05;19.40;99.90
23691;DHT22;43867;50.836;4.364;2022-09-13T17:48:32;19.40;99.90
23691;DHT22;43867;50.836;4.364;2022-09-13T17:51:06;19.30;99.90
23691;DHT22;43867;50.836;4.364;2022-09-13T17:53:39;19.20;99.90
23691;DHT22;43867;50.836;4.364;2022-09-13T17:56:06;19.20;99.90
23691;DHT22;43867;50.836;4.364;2022-09-13T17:58:32;19.30;99.90
23691;DHT22;43867;50.836;4.364;2022-09-13T18:01:05;19.40;99.90
23691;DHT22;43867;50.836;4.364;2022-09-13T18:03:31;19.40;99.90
23691;DHT22;43867;50.836;4.364;2022-09-13T18:05:58;19.60;99.90
23691;DHT22;43867;50.836;4.364;2022-09-13T18:08:25;19.60;99.90
23691;DHT22;43867;50.836;4.364;2022-09-13T18:10:51;19.60;99.90
23691;DHT22;43867;50.836;4.364;2022-09-13T18:13:17;19.60;99.90
23691;DHT22;43867;50.836;4.364;2022-09-13T18:15:44;19.60;99.90
23691;DHT22;43867;50.836;4.364;2022-09-13T18:18:11;19.50;99.90
23691;DHT22;43867;50.836;4.364;2022-09-13T18:20:37;19.40;99.90
23691;DHT22;43867;50.836;4.364;2022-09-13T18:23:03;19.40;99.90
23691;DHT22;43867;50.836;4.364;2022-09-13T18:25:29;19.30;99.90
23691;DHT22;43867;50.836;4.364;2022-09-13T18:27:55;19.30;99.90
23691;DHT22;43867;50.836;4.364;2022-09-13T18:30:21;19.30;99.90
23691;DHT22;43867;50.836;4.364;2022-09-13T18:32:46;19.40;99.90
23691;DHT22;43867;50.836;4.364;2022-09-13T18:35:12;19.30;99.90
23691;DHT22;43867;50.836;4.364;2022-09-13T18:37:38;19.30;99.90
23691;DHT22;43867;50.836;4.364;2022-09-13T18:40:04;19.30;99.90
23691;DHT22;43867;50.836;4.364;2022-09-13T18:42:32;19.30;99.90
23691;DHT22;43867;50.836;4.364;2022-09-13T18:44:57;19.20;99.90
23691;DHT22;43867;50.836;4.364;2022-09-13T18:47:23;19.20;99.90
23691;DHT22;43867;50.836;4.364;2022-09-13T18:49:48;19.30;99.90
23691;DHT22;43867;50.836;4.364;2022-09-13T18:52:14;19.30;99.90
23691;DHT22;43867;50.836;4.364;2022-09-13T18:54:40;19.30;99.90
23691;DHT22;43867;50.836;4.364;2022-09-13T18:57:06;19.30;99.90
23691;DHT22;43867;50.836;4.364;2022-09-13T18:59:32;19.40;99.90
23691;DHT22;43867;50.836;4.364;2022-09-13T19:01:58;19.50;99.90
23691;DHT22;43867;50.836;4.364;2022-09-13T19:04:24;19.60;99.90
23691;DHT22;43867;50.836;4.364;2022-09-13T19:06:51;19.60;99.90
23691;DHT22;43867;50.836;4.364;2022-09-13T19:09:18;19.60;99.90
23691;DHT22;43867;50.836;4.364;2022-09-13T19:11:46;19.60;99.90
23691;DHT22;43867;50.836;4.364;2022-09-13T19:14:16;19.70;99.90
23691;DHT22;43867;50.836;4.364;2022-09-13T19:16:43;19.70;99.90
23691;DHT22;43867;50.836;4.364;2022-09-13T19:19:09;19.50;99.90
23691;DHT22;43867;50.836;4.364;2022-09-13T19:21:35;19.40;99.90
23691;DHT22;43867;50.836;4.364;2022-09-13T19:24:01;19.30;99.90
23691;DHT22;43867;50.836;4.364;2022-09-13T19:26:29;19.30;99.90